CheckWX is a tool to help pilots better visualize weather data.  It is not intended as a substitute for an official pre-flight weather briefing.

12:58:22 UTC

EPWR METAR
Copernicus Wrocław Airport
Wrocław, Poland
Current

28 mins ago

EPWR 171230Z 02006KT 310V100 CAVOK 25/09 Q1022
Observed
Jun-17 @ 12:30 UTC
Wind
  • 020° at 6 KTS
Visibility
10,000+ meters
Flight Rules
VFR
Cloud Levels
  • Clear skies
Temperature
25°C / 77°F
Dewpoint
C / 48°F
Humidity
36%
Altimeter
30.18" Hg
Pressure
1021.92 hPa
Previous

58 mins ago

EPWR 171200Z VRB05KT CAVOK 24/09 Q1022
Observed
Jun-17 @ 12:00 UTC
Wind
  • Variable at 5 KTS
Visibility
10,000+ meters
Flight Rules
VFR
Cloud Levels
  • Clear skies
Temperature
24°C / 75°F
Dewpoint
C / 48°F
Humidity
39%
Altimeter
30.18" Hg
Pressure
1021.92 hPa
Previous

1 hour ago

EPWR 171130Z VRB05KT CAVOK 24/11 Q1022
Observed
Jun-17 @ 11:30 UTC
Wind
  • Variable at 5 KTS
Visibility
10,000+ meters
Flight Rules
VFR
Cloud Levels
  • Clear skies
Temperature
24°C / 75°F
Dewpoint
11°C / 52°F
Humidity
44%
Altimeter
30.18" Hg
Pressure
1021.92 hPa